sensor_id;sensor_type;location;lat;lon;timestamp;pressure;altitude;pressure_sealevel;temperature;humidity
55038;BME280;40937;53.594;10.034;2022-07-23T00:00:19;77846.34;;;-147.20;50.62
55038;BME280;40937;53.594;10.034;2022-07-23T00:02:45;77856.44;;;-147.20;50.70
55038;BME280;40937;53.594;10.034;2022-07-23T00:05:12;77858.47;;;-147.20;50.67
55038;BME280;40937;53.594;10.034;2022-07-23T00:07:39;77852.41;;;-147.20;50.63
55038;BME280;40937;53.594;10.034;2022-07-23T00:10:08;77840.28;;;-147.20;50.58
55038;BME280;40937;53.594;10.034;2022-07-23T00:12:35;77844.31;;;-147.20;50.66
55038;BME280;40937;53.594;10.034;2022-07-23T00:15:02;77834.22;;;-147.20;50.54
55038;BME280;40937;53.594;10.034;2022-07-23T00:17:29;77830.19;;;-147.20;50.49
55038;BME280;40937;53.594;10.034;2022-07-23T00:19:56;77820.09;;;-147.20;49.84
55038;BME280;40937;53.594;10.034;2022-07-23T00:22:22;77822.13;;;-147.20;49.65
55038;BME280;40937;53.594;10.034;2022-07-23T00:24:49;77826.16;;;-147.20;49.55
55038;BME280;40937;53.594;10.034;2022-07-23T00:27:17;77814.03;;;-147.20;49.54
55038;BME280;40937;53.594;10.034;2022-07-23T00:29:44;77820.09;;;-147.20;49.57
55038;BME280;40937;53.594;10.034;2022-07-23T00:32:10;77836.25;;;-147.20;49.87
55038;BME280;40937;53.594;10.034;2022-07-23T00:34:37;77832.22;;;-147.20;50.02
55038;BME280;40937;53.594;10.034;2022-07-23T00:37:04;77834.22;;;-147.20;50.02
55038;BME280;40937;53.594;10.034;2022-07-23T00:39:30;77846.34;;;-147.20;50.31
55038;BME280;40937;53.594;10.034;2022-07-23T00:41:57;77832.22;;;-147.20;50.14
55038;BME280;40937;53.594;10.034;2022-07-23T00:44:27;77828.19;;;-147.20;50.06
55038;BME280;40937;53.594;10.034;2022-07-23T00:46:56;77826.16;;;-147.20;50.06
55038;BME280;40937;53.594;10.034;2022-07-23T00:49:24;77830.19;;;-147.20;49.90
55038;BME280;40937;53.594;10.034;2022-07-23T00:51:51;77830.19;;;-147.20;50.19
55038;BME280;40937;53.594;10.034;2022-07-23T00:54:19;77836.25;;;-147.20;50.29
55038;BME280;40937;53.594;10.034;2022-07-23T00:56:46;77836.25;;;-147.20;50.42
55038;BME280;40937;53.594;10.034;2022-07-23T00:59:13;77828.19;;;-147.20;50.42
55038;BME280;40937;53.594;10.034;2022-07-23T01:01:42;77840.28;;;-147.20;50.61
55038;BME280;40937;53.594;10.034;2022-07-23T01:04:09;77862.50;;;-147.20;50.90
55038;BME280;40937;53.594;10.034;2022-07-23T01:06:37;77848.38;;;-147.20;51.00
55038;BME280;40937;53.594;10.034;2022-07-23T01:09:06;77858.47;;;-147.20;51.17
55038;BME280;40937;53.594;10.034;2022-07-23T01:11:33;77858.47;;;-147.20;51.34
55038;BME280;40937;53.594;10.034;2022-07-23T01:14:08;77856.44;;;-147.20;51.33
55038;BME280;40937;53.594;10.034;2022-07-23T01:16:35;77854.44;;;-147.20;51.31
55038;BME280;40937;53.594;10.034;2022-07-23T01:19:03;77852.41;;;-147.20;51.49
55038;BME280;40937;53.594;10.034;2022-07-23T01:21:36;77846.34;;;-147.20;51.56
55038;BME280;40937;53.594;10.034;2022-07-23T01:24:06;77858.47;;;-147.20;51.59
55038;BME280;40937;53.594;10.034;2022-07-23T01:26:36;77848.38;;;-147.20;51.63
55038;BME280;40937;53.594;10.034;2022-07-23T01:29:03;77852.41;;;-147.20;51.45
55038;BME280;40937;53.594;10.034;2022-07-23T01:31:32;77856.44;;;-147.20;51.67
55038;BME280;40937;53.594;10.034;2022-07-23T01:33:59;77850.38;;;-147.20;51.77
55038;BME280;40937;53.594;10.034;2022-07-23T01:36:25;77856.44;;;-147.20;51.83
55038;BME280;40937;53.594;10.034;2022-07-23T01:38:53;77862.50;;;-147.20;52.04
55038;BME280;40937;53.594;10.034;2022-07-23T01:41:22;77852.41;;;-147.20;51.75
55038;BME280;40937;53.594;10.034;2022-07-23T01:43:49;77854.44;;;-147.20;51.84
55038;BME280;40937;53.594;10.034;2022-07-23T01:46:17;77862.50;;;-147.20;51.85
55038;BME280;40937;53.594;10.034;2022-07-23T01:48:48;77858.47;;;-147.20;52.11
55038;BME280;40937;53.594;10.034;2022-07-23T01:51:32;77864.53;;;-147.20;52.00
55038;BME280;40937;53.594;10.034;2022-07-23T01:54:06;77864.53;;;-147.20;52.08
55038;BME280;40937;53.594;10.034;2022-07-23T01:56:35;77860.47;;;-147.20;52.09
55038;BME280;40937;53.594;10.034;2022-07-23T01:59:01;77840.28;;;-147.20;51.70
55038;BME280;40937;53.594;10.034;2022-07-23T02:01:28;77830.19;;;-147.20;51.63
55038;BME280;40937;53.594;10.034;2022-07-23T02:03:55;77830.19;;;-147.20;51.77
55038;BME280;40937;53.594;10.034;2022-07-23T02:06:22;77838.28;;;-147.20;51.74
55038;BME280;40937;53.594;10.034;2022-07-23T02:08:49;77826.16;;;-147.20;51.50
55038;BME280;40937;53.594;10.034;2022-07-23T02:11:15;77820.09;;;-147.20;51.64
55038;BME280;40937;53.594;10.034;2022-07-23T02:13:43;77824.13;;;-147.20;51.61
55038;BME280;40937;53.594;10.034;2022-07-23T02:16:10;77836.25;;;-147.20;51.81
55038;BME280;40937;53.594;10.034;2022-07-23T02:18:37;77832.22;;;-147.20;51.49
55038;BME280;40937;53.594;10.034;2022-07-23T02:21:03;77842.31;;;-147.20;51.77
55038;BME280;40937;53.594;10.034;2022-07-23T02:23:30;77834.22;;;-147.20;51.77
55038;BME280;40937;53.594;10.034;2022-07-23T02:25:57;77832.22;;;-147.20;51.60
55038;BME280;40937;53.594;10.034;2022-07-23T02:28:23;77848.38;;;-147.20;51.99
55038;BME280;40937;53.594;10.034;2022-07-23T02:30:51;77842.31;;;-147.20;51.62
55038;BME280;40937;53.594;10.034;2022-07-23T02:33:18;77834.22;;;-147.20;51.76
55038;BME280;40937;53.594;10.034;2022-07-23T02:35:46;77852.41;;;-147.20;51.91
55038;BME280;40937;53.594;10.034;2022-07-23T02:38:13;77840.28;;;-147.20;51.84
55038;BME280;40937;53.594;10.034;2022-07-23T02:40:40;77854.44;;;-147.20;52.00
55038;BME280;40937;53.594;10.034;2022-07-23T02:43:06;77852.41;;;-147.20;52.02
55038;BME280;40937;53.594;10.034;2022-07-23T02:45:33;77866.53;;;-147.20;52.24
55038;BME280;40937;53.594;10.034;2022-07-23T02:48:01;77858.47;;;-147.20;52.27
55038;BME280;40937;53.594;10.034;2022-07-23T02:50:28;77862.50;;;-147.20;52.57
55038;BME280;40937;53.594;10.034;2022-07-23T02:52:57;77868.56;;;-147.20;52.60
55038;BME280;40937;53.594;10.034;2022-07-23T02:55:24;77864.53;;;-147.20;52.68
55038;BME280;40937;53.594;10.034;2022-07-23T02:57:51;77874.63;;;-147.20;52.99
55038;BME280;40937;53.594;10.034;2022-07-23T03:00:18;77884.72;;;-147.20;53.25
55038;BME280;40937;53.594;10.034;2022-07-23T03:02:45;77880.66;;;-147.20;53.21
55038;BME280;40937;53.594;10.034;2022-07-23T03:05:13;77878.66;;;-147.20;53.50
55038;BME280;40937;53.594;10.034;2022-07-23T03:07:39;77872.59;;;-147.20;53.59
55038;BME280;40937;53.594;10.034;2022-07-23T03:10:07;77872.59;;;-147.20;53.54
55038;BME280;40937;53.594;10.034;2022-07-23T03:12:33;77870.56;;;-147.20;53.62
55038;BME280;40937;53.594;10.034;2022-07-23T03:15:02;77868.56;;;-147.20;53.52
55038;BME280;40937;53.594;10.034;2022-07-23T03:17:28;77876.63;;;-147.20;53.64
55038;BME280;40937;53.594;10.034;2022-07-23T03:19:55;77870.56;;;-147.20;53.90
55038;BME280;40937;53.594;10.034;2022-07-23T03:22:24;77876.63;;;-147.20;53.84
55038;BME280;40937;53.594;10.034;2022-07-23T03:24:51;77866.53;;;-147.20;53.55
55038;BME280;40937;53.594;10.034;2022-07-23T03:27:25;77876.63;;;-147.20;53.87
55038;BME280;40937;53.594;10.034;2022-07-23T03:29:53;77872.59;;;-147.20;53.96
55038;BME280;40937;53.594;10.034;2022-07-23T03:32:20;77878.66;;;-147.20;54.14
55038;BME280;40937;53.594;10.034;2022-07-23T03:34:47;77866.53;;;-147.20;54.02
55038;BME280;40937;53.594;10.034;2022-07-23T03:37:14;77866.53;;;-147.20;53.94
55038;BME280;40937;53.594;10.034;2022-07-23T03:39:44;77868.56;;;-147.20;53.84
55038;BME280;40937;53.594;10.034;2022-07-23T03:42:10;77870.56;;;-147.20;53.82
55038;BME280;40937;53.594;10.034;2022-07-23T03:44:37;77860.47;;;-147.20;53.77
55038;BME280;40937;53.594;10.034;2022-07-23T03:47:05;77866.53;;;-147.20;53.92
55038;BME280;40937;53.594;10.034;2022-07-23T03:49:32;77882.69;;;-147.20;54.27
55038;BME280;40937;53.594;10.034;2022-07-23T03:51:59;77878.66;;;-147.20;54.27
55038;BME280;40937;53.594;10.034;2022-07-23T03:54:26;77876.63;;;-147.20;54.27
55038;BME280;40937;53.594;10.034;2022-07-23T03:56:54;77882.69;;;-147.20;54.27
55038;BME280;40937;53.594;10.034;2022-07-23T03:59:21;77884.72;;;-147.20;54.30
55038;BME280;40937;53.594;10.034;2022-07-23T04:01:47;77886.72;;;-147.20;54.36
55038;BME280;40937;53.594;10.034;2022-07-23T04:04:14;77896.81;;;-147.20;54.57
55038;BME280;40937;53.594;10.034;2022-07-23T04:06:44;77882.69;;;-147.20;54.53
55038;BME280;40937;53.594;10.034;2022-07-23T04:09:10;77888.75;;;-147.20;54.52
55038;BME280;40937;53.594;10.034;2022-07-23T04:11:37;77888.75;;;-147.20;54.69
55038;BME280;40937;53.594;10.034;2022-07-23T04:14:06;77888.75;;;-147.20;54.72
55038;BME280;40937;53.594;10.034;2022-07-23T04:16:33;77900.88;;;-147.20;54.69
55038;BME280;40937;53.594;10.034;2022-07-23T04:19:00;77898.84;;;-147.20;55.10
55038;BME280;40937;53.594;10.034;2022-07-23T04:21:33;77890.75;;;-147.20;54.78
55038;BME280;40937;53.594;10.034;2022-07-23T04:23:59;77888.75;;;-147.20;54.77
55038;BME280;40937;53.594;10.034;2022-07-23T04:26:26;77890.75;;;-147.20;54.59
55038;BME280;40937;53.594;10.034;2022-07-23T04:28:53;77884.72;;;-147.20;54.59
55038;BME280;40937;53.594;10.034;2022-07-23T04:31:21;77886.72;;;-147.20;54.70
55038;BME280;40937;53.594;10.034;2022-07-23T04:33:48;77878.66;;;-147.20;54.70
55038;BME280;40937;53.594;10.034;2022-07-23T04:36:15;77888.75;;;-147.20;54.79
55038;BME280;40937;53.594;10.034;2022-07-23T04:38:41;77886.72;;;-147.20;54.79
55038;BME280;40937;53.594;10.034;2022-07-23T04:41:08;77890.75;;;-147.20;54.99
55038;BME280;40937;53.594;10.034;2022-07-23T04:43:34;77886.72;;;-147.20;55.02
55038;BME280;40937;53.594;10.034;2022-07-23T04:46:02;77888.75;;;-147.20;54.98
55038;BME280;40937;53.594;10.034;2022-07-23T04:48:35;77894.81;;;-147.20;55.23
55038;BME280;40937;53.594;10.034;2022-07-23T04:51:08;77884.72;;;-147.20;55.17
55038;BME280;40937;53.594;10.034;2022-07-23T04:53:37;77878.66;;;-147.20;55.00
55038;BME280;40937;53.594;10.034;2022-07-23T04:56:04;77882.69;;;-147.20;55.12
55038;BME280;40937;53.594;10.034;2022-07-23T04:58:32;77880.66;;;-147.20;55.19
55038;BME280;40937;53.594;10.034;2022-07-23T05:00:58;77890.75;;;-147.20;55.41
55038;BME280;40937;53.594;10.034;2022-07-23T05:03:26;77900.88;;;-147.20;55.64
55038;BME280;40937;53.594;10.034;2022-07-23T05:05:55;77892.78;;;-147.20;55.44
55038;BME280;40937;53.594;10.034;2022-07-23T05:08:22;77894.81;;;-147.20;55.49
55038;BME280;40937;53.594;10.034;2022-07-23T05:10:51;77894.81;;;-147.20;55.32
55038;BME280;40937;53.594;10.034;2022-07-23T05:13:19;77908.94;;;-147.20;55.68
55038;BME280;40937;53.594;10.034;2022-07-23T05:15:50;77917.00;;;-147.20;55.80
55038;BME280;40937;53.594;10.034;2022-07-23T05:18:16;77906.91;;;-147.20;55.61
55038;BME280;40937;53.594;10.034;2022-07-23T05:20:43;77906.91;;;-147.20;55.63
55038;BME280;40937;53.594;10.034;2022-07-23T05:23:15;77902.88;;;-147.20;55.39
55038;BME280;40937;53.594;10.034;2022-07-23T05:25:42;77915.00;;;-147.20;55.35
55038;BME280;40937;53.594;10.034;2022-07-23T05:28:09;77908.94;;;-147.20;55.21
55038;BME280;40937;53.594;10.034;2022-07-23T05:30:36;77919.03;;;-147.20;55.34
55038;BME280;40937;53.594;10.034;2022-07-23T05:33:06;77929.13;;;-147.20;55.59
55038;BME280;40937;53.594;10.034;2022-07-23T05:35:34;77927.09;;;-147.20;55.59
55038;BME280;40937;53.594;10.034;2022-07-23T05:38:16;77921.06;;;-147.20;55.17
55038;BME280;40937;53.594;10.034;2022-07-23T05:40:43;77910.97;;;-147.20;54.59
55038;BME280;40937;53.594;10.034;2022-07-23T05:43:10;77912.97;;;-147.20;54.69
55038;BME280;40937;53.594;10.034;2022-07-23T05:45:38;77910.97;;;-147.20;54.55
55038;BME280;40937;53.594;10.034;2022-07-23T05:48:05;77902.88;;;-147.20;54.48
55038;BME280;40937;53.594;10.034;2022-07-23T05:50:37;77888.75;;;-147.20;54.18
55038;BME280;40937;53.594;10.034;2022-07-23T05:53:13;77896.81;;;-147.20;54.04
55038;BME280;40937;53.594;10.034;2022-07-23T05:56:02;77892.78;;;-147.20;53.98
55038;BME280;40937;53.594;10.034;2022-07-23T05:58:30;77886.72;;;-147.20;53.92
55038;BME280;40937;53.594;10.034;2022-07-23T06:00:57;77888.75;;;-147.20;54.05
55038;BME280;40937;53.594;10.034;2022-07-23T06:03:24;77898.84;;;-147.20;53.72
55038;BME280;40937;53.594;10.034;2022-07-23T06:05:51;77896.81;;;-147.20;53.77
55038;BME280;40937;53.594;10.034;2022-07-23T06:08:17;77892.78;;;-147.20;54.02
55038;BME280;40937;53.594;10.034;2022-07-23T06:10:44;77894.81;;;-147.20;54.17
55038;BME280;40937;53.594;10.034;2022-07-23T06:13:13;77890.75;;;-147.20;53.94
55038;BME280;40937;53.594;10.034;2022-07-23T06:15:40;77888.75;;;-147.20;54.09
55038;BME280;40937;53.594;10.034;2022-07-23T06:18:07;77890.75;;;-147.20;54.10
55038;BME280;40937;53.594;10.034;2022-07-23T06:20:34;77884.72;;;-147.20;54.23
55038;BME280;40937;53.594;10.034;2022-07-23T06:23:00;77886.72;;;-147.20;54.58
55038;BME280;40937;53.594;10.034;2022-07-23T06:25:28;77876.63;;;-147.20;54.31
55038;BME280;40937;53.594;10.034;2022-07-23T06:27:54;77878.66;;;-147.20;54.35
55038;BME280;40937;53.594;10.034;2022-07-23T06:30:22;77878.66;;;-147.20;54.37
55038;BME280;40937;53.594;10.034;2022-07-23T06:32:49;77876.63;;;-147.20;54.51
55038;BME280;40937;53.594;10.034;2022-07-23T06:35:16;77880.66;;;-147.20;54.39
55038;BME280;40937;53.594;10.034;2022-07-23T06:37:45;77872.59;;;-147.20;54.31
55038;BME280;40937;53.594;10.034;2022-07-23T06:40:12;77868.56;;;-147.20;53.69
55038;BME280;40937;53.594;10.034;2022-07-23T06:42:39;77862.50;;;-147.20;53.69
55038;BME280;40937;53.594;10.034;2022-07-23T06:45:08;77860.47;;;-147.20;53.33
55038;BME280;40937;53.594;10.034;2022-07-23T06:47:37;77864.53;;;-147.20;53.43
55038;BME280;40937;53.594;10.034;2022-07-23T06:50:06;77864.53;;;-147.20;53.74
55038;BME280;40937;53.594;10.034;2022-07-23T06:52:33;77866.53;;;-147.20;53.96
55038;BME280;40937;53.594;10.034;2022-07-23T06:54:59;77868.56;;;-147.20;53.66
55038;BME280;40937;53.594;10.034;2022-07-23T06:57:26;77868.56;;;-147.20;53.73
55038;BME280;40937;53.594;10.034;2022-07-23T06:59:53;77866.53;;;-147.20;53.94
55038;BME280;40937;53.594;10.034;2022-07-23T07:02:20;77876.63;;;-147.20;54.05
55038;BME280;40937;53.594;10.034;2022-07-23T07:04:48;77874.63;;;-147.20;53.11
55038;BME280;40937;53.594;10.034;2022-07-23T07:07:15;77868.56;;;-147.20;52.76
55038;BME280;40937;53.594;10.034;2022-07-23T07:09:42;77872.59;;;-147.20;52.73
55038;BME280;40937;53.594;10.034;2022-07-23T07:12:09;77872.59;;;-147.20;52.76
55038;BME280;40937;53.594;10.034;2022-07-23T07:14:37;77870.56;;;-147.20;53.26
55038;BME280;40937;53.594;10.034;2022-07-23T07:17:04;77876.63;;;-147.20;53.39
55038;BME280;40937;53.594;10.034;2022-07-23T07:19:30;77874.63;;;-147.20;53.57
55038;BME280;40937;53.594;10.034;2022-07-23T07:21:58;77878.66;;;-147.20;53.32
55038;BME280;40937;53.594;10.034;2022-07-23T07:24:25;77870.56;;;-147.20;53.43
55038;BME280;40937;53.594;10.034;2022-07-23T07:26:51;77878.66;;;-147.20;53.99
55038;BME280;40937;53.594;10.034;2022-07-23T07:29:18;77892.78;;;-147.20;55.20
55038;BME280;40937;53.594;10.034;2022-07-23T07:31:45;77898.84;;;-147.20;56.35
55038;BME280;40937;53.594;10.034;2022-07-23T07:34:12;77890.75;;;-147.20;56.09
55038;BME280;40937;53.594;10.034;2022-07-23T07:36:38;77892.78;;;-147.20;56.04
55038;BME280;40937;53.594;10.034;2022-07-23T07:39:06;77904.91;;;-147.20;56.42
55038;BME280;40937;53.594;10.034;2022-07-23T07:41:36;77904.91;;;-147.20;56.38
55038;BME280;40937;53.594;10.034;2022-07-23T07:44:03;77892.78;;;-147.20;56.55
55038;BME280;40937;53.594;10.034;2022-07-23T07:46:29;77888.75;;;-147.20;56.61
55038;BME280;40937;53.594;10.034;2022-07-23T07:48:56;77892.78;;;-147.20;56.51
55038;BME280;40937;53.594;10.034;2022-07-23T07:51:23;77886.72;;;-147.20;56.37
55038;BME280;40937;53.594;10.034;2022-07-23T07:53:49;77882.69;;;-147.20;55.67
55038;BME280;40937;53.594;10.034;2022-07-23T07:56:17;77886.72;;;-147.20;55.48
55038;BME280;40937;53.594;10.034;2022-07-23T07:58:44;77868.56;;;-147.20;55.19
55038;BME280;40937;53.594;10.034;2022-07-23T08:01:11;77878.66;;;-147.20;55.10
55038;BME280;40937;53.594;10.034;2022-07-23T08:03:37;77876.63;;;-147.20;55.59
55038;BME280;40937;53.594;10.034;2022-07-23T08:06:04;77866.53;;;-147.20;55.13
55038;BME280;40937;53.594;10.034;2022-07-23T08:08:31;77860.47;;;-147.20;54.60
55038;BME280;40937;53.594;10.034;2022-07-23T08:10:57;77858.47;;;-147.20;54.34
55038;BME280;40937;53.594;10.034;2022-07-23T08:13:25;77860.47;;;-147.20;54.18
55038;BME280;40937;53.594;10.034;2022-07-23T08:15:52;77856.44;;;-147.20;54.00
55038;BME280;40937;53.594;10.034;2022-07-23T08:18:19;77868.56;;;-147.20;53.92
55038;BME280;40937;53.594;10.034;2022-07-23T08:20:46;77872.59;;;-147.20;55.02
55038;BME280;40937;53.594;10.034;2022-07-23T08:23:12;77882.69;;;-147.20;56.22
55038;BME280;40937;53.594;10.034;2022-07-23T08:25:40;77888.75;;;-147.20;56.81
55038;BME280;40937;53.594;10.034;2022-07-23T08:28:09;77886.72;;;-147.20;57.40
55038;BME280;40937;53.594;10.034;2022-07-23T08:30:38;77886.72;;;-147.20;57.46
55038;BME280;40937;53.594;10.034;2022-07-23T08:33:07;77880.66;;;-147.20;57.11
55038;BME280;40937;53.594;10.034;2022-07-23T08:35:38;77888.75;;;-147.20;57.22
55038;BME280;40937;53.594;10.034;2022-07-23T08:38:08;77888.75;;;-147.20;56.83
55038;BME280;40937;53.594;10.034;2022-07-23T08:40:38;77884.72;;;-147.20;56.67
55038;BME280;40937;53.594;10.034;2022-07-23T08:43:08;77882.69;;;-147.20;56.46
55038;BME280;40937;53.594;10.034;2022-07-23T08:45:38;77878.66;;;-147.20;54.89
55038;BME280;40937;53.594;10.034;2022-07-23T08:48:07;77872.59;;;-147.20;55.10
55038;BME280;40937;53.594;10.034;2022-07-23T08:50:35;77868.56;;;-147.20;54.92
55038;BME280;40937;53.594;10.034;2022-07-23T08:53:06;77862.50;;;-147.20;53.97
55038;BME280;40937;53.594;10.034;2022-07-23T08:55:33;77852.41;;;-147.20;53.20
55038;BME280;40937;53.594;10.034;2022-07-23T08:58:00;77846.34;;;-147.20;52.37
55038;BME280;40937;53.594;10.034;2022-07-23T09:00:27;77846.34;;;-147.20;52.22
55038;BME280;40937;53.594;10.034;2022-07-23T09:02:55;77840.28;;;-147.20;52.00
55038;BME280;40937;53.594;10.034;2022-07-23T09:05:22;77838.28;;;-147.20;50.90
55038;BME280;40937;53.594;10.034;2022-07-23T09:08:10;77822.13;;;-147.20;50.81
55038;BME280;40937;53.594;10.034;2022-07-23T09:10:43;77826.16;;;-147.20;50.83
55038;BME280;40937;53.594;10.034;2022-07-23T09:13:29;77810.00;;;-147.20;50.42
55038;BME280;40937;53.594;10.034;2022-07-23T09:15:58;77799.91;;;-147.20;49.76
55038;BME280;40937;53.594;10.034;2022-07-23T09:18:31;77795.88;;;-147.20;49.60
55038;BME280;40937;53.594;10.034;2022-07-23T09:21:10;77791.84;;;-147.20;49.30
55038;BME280;40937;53.594;10.034;2022-07-23T09:23:39;77781.75;;;-147.20;48.96
55038;BME280;40937;53.594;10.034;2022-07-23T09:26:26;77771.66;;;-147.20;49.04
55038;BME280;40937;53.594;10.034;2022-07-23T09:28:57;77771.66;;;-147.20;49.19
55038;BME280;40937;53.594;10.034;2022-07-23T09:31:27;77763.56;;;-147.20;49.13
55038;BME280;40937;53.594;10.034;2022-07-23T09:34:10;77747.41;;;-147.20;48.54
55038;BME280;40937;53.594;10.034;2022-07-23T09:36:38;77743.38;;;-147.20;48.69
55038;BME280;40937;53.594;10.034;2022-07-23T09:39:05;77745.41;;;-147.20;48.97
55038;BME280;40937;53.594;10.034;2022-07-23T09:41:38;77745.41;;;-147.20;49.11
55038;BME280;40937;53.594;10.034;2022-07-23T09:44:09;77737.31;;;-147.20;49.24
55038;BME280;40937;53.594;10.034;2022-07-23T09:46:37;77737.31;;;-147.20;49.14
55038;BME280;40937;53.594;10.034;2022-07-23T09:49:17;77737.31;;;-147.20;48.86
55038;BME280;40937;53.594;10.034;2022-07-23T09:51:46;77741.34;;;-147.20;48.90
55038;BME280;40937;53.594;10.034;2022-07-23T09:54:25;77741.34;;;-147.20;49.01
55038;BME280;40937;53.594;10.034;2022-07-23T09:56:52;77733.28;;;-147.20;49.68
55038;BME280;40937;53.594;10.034;2022-07-23T09:59:24;77727.22;;;-147.20;50.99
55038;BME280;40937;53.594;10.034;2022-07-23T10:01:52;77717.13;;;-147.20;50.04
55038;BME280;40937;53.594;10.034;2022-07-23T10:04:20;77705.03;;;-147.20;50.63
55038;BME280;40937;53.594;10.034;2022-07-23T10:07:13;77713.09;;;-147.20;48.99
55038;BME280;40937;53.594;10.034;2022-07-23T10:09:59;77711.06;;;-147.20;49.03
55038;BME280;40937;53.594;10.034;2022-07-23T10:13:02;77715.13;;;-147.20;48.91
55038;BME280;40937;53.594;10.034;2022-07-23T10:15:50;77719.16;;;-147.20;48.46
55038;BME280;40937;53.594;10.034;2022-07-23T10:18:17;77715.13;;;-147.20;48.93
55038;BME280;40937;53.594;10.034;2022-07-23T10:20:47;77723.19;;;-147.20;48.63
55038;BME280;40937;53.594;10.034;2022-07-23T10:23:22;77729.25;;;-147.20;49.42
55038;BME280;40937;53.594;10.034;2022-07-23T10:25:58;77729.25;;;-147.20;49.07
55038;BME280;40937;53.594;10.034;2022-07-23T10:28:49;77707.03;;;-147.20;48.80
55038;BME280;40937;53.594;10.034;2022-07-23T10:31:31;77692.91;;;-147.20;49.51
55038;BME280;40937;53.594;10.034;2022-07-23T10:34:10;77678.78;;;-147.20;49.14
55038;BME280;40937;53.594;10.034;2022-07-23T10:36:44;77668.69;;;-147.20;48.25
55038;BME280;40937;53.594;10.034;2022-07-23T10:39:19;77666.66;;;-147.20;47.11
55038;BME280;40937;53.594;10.034;2022-07-23T10:41:46;77656.56;;;-147.20;47.69
55038;BME280;40937;53.594;10.034;2022-07-23T10:44:15;77646.47;;;-147.20;46.76
55038;BME280;40937;53.594;10.034;2022-07-23T10:46:57;77644.44;;;-147.20;45.96
55038;BME280;40937;53.594;10.034;2022-07-23T10:49:30;77646.47;;;-147.20;46.07
55038;BME280;40937;53.594;10.034;2022-07-23T10:52:19;77634.34;;;-147.20;46.89
55038;BME280;40937;53.594;10.034;2022-07-23T10:54:47;77632.34;;;-147.20;46.70
55038;BME280;40937;53.594;10.034;2022-07-23T10:57:16;77634.34;;;-147.20;46.88
55038;BME280;40937;53.594;10.034;2022-07-23T11:00:12;77636.38;;;-147.20;46.95
55038;BME280;40937;53.594;10.034;2022-07-23T11:02:40;77634.34;;;-147.20;47.36
55038;BME280;40937;53.594;10.034;2022-07-23T11:05:09;77632.34;;;-147.20;47.30
55038;BME280;40937;53.594;10.034;2022-07-23T11:08:14;77648.50;;;-147.20;47.57
55038;BME280;40937;53.594;10.034;2022-07-23T11:10:44;77658.59;;;-147.20;47.78
55038;BME280;40937;53.594;10.034;2022-07-23T11:13:44;77662.63;;;-147.20;48.01
55038;BME280;40937;53.594;10.034;2022-07-23T11:16:22;77672.72;;;-147.20;48.44
55038;BME280;40937;53.594;10.034;2022-07-23T11:19:07;77680.78;;;-147.20;48.30
55038;BME280;40937;53.594;10.034;2022-07-23T11:21:45;77668.69;;;-147.20;48.11
55038;BME280;40937;53.594;10.034;2022-07-23T11:24:15;77666.66;;;-147.20;49.00
55038;BME280;40937;53.594;10.034;2022-07-23T11:26:56;77658.59;;;-147.20;48.11
55038;BME280;40937;53.594;10.034;2022-07-23T11:29:45;77654.53;;;-147.20;47.65
55038;BME280;40937;53.594;10.034;2022-07-23T11:32:25;77632.34;;;-147.20;48.36
55038;BME280;40937;53.594;10.034;2022-07-23T11:34:54;77616.19;;;-147.20;47.68
55038;BME280;40937;53.594;10.034;2022-07-23T11:37:35;77598.00;;;-147.20;47.65
55038;BME280;40937;53.594;10.034;2022-07-23T11:40:06;77583.88;;;-147.20;47.20
55038;BME280;40937;53.594;10.034;2022-07-23T11:42:35;77591.97;;;-147.20;45.92
55038;BME280;40937;53.594;10.034;2022-07-23T11:45:04;77579.84;;;-147.20;45.96
55038;BME280;40937;53.594;10.034;2022-07-23T11:47:30;77561.69;;;-147.20;45.85
55038;BME280;40937;53.594;10.034;2022-07-23T11:49:58;77561.69;;;-147.20;45.97
55038;BME280;40937;53.594;10.034;2022-07-23T11:52:26;77555.63;;;-147.20;45.49
55038;BME280;40937;53.594;10.034;2022-07-23T11:54:54;77563.69;;;-147.20;45.71
55038;BME280;40937;53.594;10.034;2022-07-23T11:57:27;77573.78;;;-147.20;45.64
55038;BME280;40937;53.594;10.034;2022-07-23T11:59:56;77571.78;;;-147.20;45.64
55038;BME280;40937;53.594;10.034;2022-07-23T12:02:26;77587.94;;;-147.20;45.88
55038;BME280;40937;53.594;10.034;2022-07-23T12:05:09;77593.97;;;-147.20;45.83
55038;BME280;40937;53.594;10.034;2022-07-23T12:07:43;77602.06;;;-147.20;45.49
55038;BME280;40937;53.594;10.034;2022-07-23T12:10:21;77612.16;;;-147.20;46.01
55038;BME280;40937;53.594;10.034;2022-07-23T12:12:51;77604.06;;;-147.20;46.02
55038;BME280;40937;53.594;10.034;2022-07-23T12:15:20;77610.13;;;-147.20;45.42
55038;BME280;40937;53.594;10.034;2022-07-23T12:17:48;77606.09;;;-147.20;45.04
55038;BME280;40937;53.594;10.034;2022-07-23T12:20:21;77614.16;;;-147.20;45.59
55038;BME280;40937;53.594;10.034;2022-07-23T12:22:50;77622.25;;;-147.20;45.92
55038;BME280;40937;53.594;10.034;2022-07-23T12:25:19;77612.16;;;-147.20;45.84
55038;BME280;40937;53.594;10.034;2022-07-23T12:27:46;77628.31;;;-147.20;46.18
55038;BME280;40937;53.594;10.034;2022-07-23T12:30:27;77638.41;;;-147.20;45.87
55038;BME280;40937;53.594;10.034;2022-07-23T12:32:55;77636.38;;;-147.20;45.52
55038;BME280;40937;53.594;10.034;2022-07-23T12:35:29;77634.34;;;-147.20;45.22
55038;BME280;40937;53.594;10.034;2022-07-23T12:38:00;77628.31;;;-147.20;44.98
55038;BME280;40937;53.594;10.034;2022-07-23T12:40:30;77624.25;;;-147.20;44.76
55038;BME280;40937;53.594;10.034;2022-07-23T12:42:59;77620.22;;;-147.20;44.64